Grand Teton National Park, WY

2:36 AM MDT on August 02, 2014 (GMT -0600)
Dubois Muni, Dubois, WY (KDUB) Elev 7297 ft | 43.55 °N, 109.69 °W | Change Station

Current weather conditions updated 1 hour ago

Clear
Clear
52 °F
Feels Like 52 °F
N
15
Wind Variable Wind from NW

Today is forecast to be nearly the same temperature as yesterday. Isolated thunderstorms.

Today
High -- | Low -- °F
--% Chance of Precip.
Yesterday
High -- | Low -- °F
Precip. -- in
6:10 AM 8:43 PM
Waxing Crescent, 33% visible
Pressure 30.38 in
Visibility 10.0 miles
Clouds Clear
Dew Point 41 °F
Humidity 67%
Rainfall 0.00 in
Snow Depth Not available.
UV 0 out of 12
Pollen 6.90 out of 12
Air Quality Not available.
Flu Activity Not available.
METAR KDUB 020735Z AUTO 31013KT 10SM CLR 11/05 A3038 RMK AO2

More Conditions Fewer Conditions

Pressure 30.38 in
Visibility 10.0 miles
Clouds Clear
Dew Point 41 °F
Humidity 67%
Rainfall 0.00 in
Snow Depth Not available.
UV 0 out of 12
Pollen 6.90 out of 12
Air Quality Not available.
Flu Activity Not available.
METAR KDUB 020735Z AUTO 31013KT 10SM CLR 11/05 A3038 RMK AO2

More Conditions Fewer Conditions

10-Day Weather Forecast

Almanac

Astronomy

Aug. 02, 2014 Rise Set
Actual Time 6:10 AM MDT 8:43 PM MDT
Civil Twilight 5:38 AM MDT 9:16 PM MDT
Nautical Twilight 4:57 AM MDT 9:57 PM MDT
Astronomical Twilight 4:10 AM MDT 10:43 PM MDT
Moon 12:50 PM MDT 11:48 PM MDT
Length of Visible Light 15h 38m
Length of Day
14h 32m
Tomorrow will be 2m 22s shorter.
Waxing Crescent, 33% of the Moon is Illuminated
Today
Waxing Crescent
Aug 3
First Quarter
Aug 10
Full
Aug 17
Last Quarter
Aug 25
New

Today's Extremes

State Highs State Lows

Community

WunderPhotos

Upload Photos

1,739,844 photos uploaded!

Nearby

Snow Depth

Station Depth Elevation
Base Camp 0 in 7030 ft
Snake River Station 0 in 6920 ft
Thumb Divide 0 in 7980 ft
Burroughs Creek 1 in 8750 ft
Gros Ventre Summit 0 in 8750 ft

Earthquake Activity

City Distance Mag. Time & Date
No recent earthquake activity has been reported nearby.
Minimum magnitude displayed is 2.5.

Coastal Water Temperatures

Place Temperature
No Stations Reporting

Nearby Weather Stations

Station Location Temp. Windchill Dew Point Humidity Wind Precip. Elev Updated Type
RAWS BURRO HILL WY, Moran, WY 49 °F 48 °F 42 °F 78% East  at  4 mph 0.00 in / hr 7250 ft 1:52 AM MDT MADIS
HADS SNAKE RIVER ON JACKSON LAKE AT D WY, Moose, WY 66 °F - - - North  at  - 0.01 in / hr 6777 ft 1:45 AM MDT MADIS
HADS HUCKLEBERRY DIVIDE NEAR MORAN 17 WY, Moose, WY 46 °F 46 °F - - North  at  - 0.00 in / hr 7020 ft 1:45 AM MDT MADIS
HADS SOUTH ENTRANCE YNP SNAKE RIVER S WY, Moose, WY 46 °F 46 °F - - North  at  - 0.00 in / hr 6899 ft 1:45 AM MDT MADIS
RAWS GRAND TETON WY, Moose, WY 50 °F - 42 °F 74% NNW  at  3 mph 0.00 in / hr 6729 ft 1:58 AM MDT MADIS

Show More Stations Show Fewer Stations